Time;durP1;ratioP1;P1;durP2;ratioP2;P2;SDS_P1;SDS_P2;PMS_P1;PMS_P2;Temp;Humidity;BMP_temperature;BMP_pressure;BME280_temperature;BME280_humidity;BME280_pressure;Samples;Min_cycle;Max_cycle;Signal;HPM_P1;HPM_P2
2021/10/10 00:00:40;;;;;;;;;17.25;15.75;;;;;12.01;33.35;102534.31;5053437;28;11503;-68
2021/10/10 00:03:36;;;;;;;;;17.50;16.50;;;;;11.92;33.61;102526.63;5053628;28;11540;-68
2021/10/10 00:06:32;;;;;;;;;23.00;23.00;;;;;11.85;33.52;102530.88;5053584;28;11290;-68
2021/10/10 00:09:27;;;;;;;;;18.50;16.25;;;;;11.86;33.63;102522.25;5053544;28;11516;-68
2021/10/10 00:12:23;;;;;;;;;21.25;21.25;;;;;11.87;33.50;102534.19;5054250;28;11528;-68
2021/10/10 00:15:19;;;;;;;;;17.75;17.75;;;;;11.88;33.67;102527.50;5040106;28;11512;-68
2021/10/10 00:18:15;;;;;;;;;18.75;18.75;;;;;11.78;34.23;102528.44;5040389;28;11543;-68
2021/10/10 00:21:10;;;;;;;;;22.75;21.75;;;;;11.90;33.46;102534.44;5053816;28;11510;-68
2021/10/10 00:24:06;;;;;;;;;25.25;22.75;;;;;11.93;33.54;102528.28;5052962;28;12253;-68
2021/10/10 00:27:02;;;;;;;;;28.25;27.25;;;;;11.86;34.15;102532.53;5053228;28;11536;-68
2021/10/10 00:29:57;;;;;;;;;23.00;22.00;;;;;11.91;34.00;102533.31;5052737;28;12369;-68
2021/10/10 00:32:53;;;;;;;;;25.25;24.75;;;;;11.91;34.19;102530.53;5049904;28;11496;-68
2021/10/10 00:35:49;;;;;;;;;22.25;22.25;;;;;11.90;33.51;102528.88;5035260;28;11543;-68
2021/10/10 00:38:44;;;;;;;;;22.00;22.00;;;;;11.92;33.69;102525.81;5019727;28;11602;-68
2021/10/10 00:41:40;;;;;;;;;28.25;28.25;;;;;11.85;33.40;102526.16;5032559;28;11531;-68
2021/10/10 00:44:35;;;;;;;;;13.00;13.00;;;;;11.77;33.89;102525.97;5041155;28;11553;-68
2021/10/10 00:47:31;;;;;;;;;24.50;23.00;;;;;11.85;33.61;102522.56;5052919;28;11632;-68
2021/10/10 00:50:29;;;;;;;;;25.50;25.50;;;;;11.85;33.66;102530.88;5041037;28;11539;-67
2021/10/10 00:53:25;;;;;;;;;22.25;21.50;;;;;11.77;34.05;102524.00;5052371;28;11647;-66
2021/10/10 00:56:22;;;;;;;;;29.00;25.25;;;;;11.77;34.17;102526.78;5052564;28;11517;-67
2021/10/10 00:59:22;;;;;;;;;20.25;17.75;;;;;11.74;34.12;102519.06;5052655;28;11552;-67
2021/10/10 01:02:17;;;;;;;;;22.75;21.75;;;;;11.83;33.95;102533.13;5032547;28;11525;-67
2021/10/10 01:05:15;;;;;;;;;22.50;22.00;;;;;11.73;34.15;102525.72;5050364;28;12181;-67
2021/10/10 01:08:15;;;;;;;;;20.75;20.75;;;;;11.75;34.49;102523.47;5053949;28;11542;-67
2021/10/10 01:11:11;;;;;;;;;24.25;20.75;;;;;11.64;34.57;102521.94;5053258;28;11527;-67
2021/10/10 01:14:07;;;;;;;;;28.25;27.50;;;;;11.67;34.26;102519.41;5053061;28;11657;-67
2021/10/10 01:17:03;;;;;;;;;24.00;23.75;;;;;11.62;34.63;102521.41;5051637;28;11520;-68
2021/10/10 01:20:00;;;;;;;;;21.25;20.25;;;;;11.73;34.86;102525.72;5052062;28;11574;-68
2021/10/10 01:22:55;;;;;;;;;19.50;18.25;;;;;11.61;34.92;102533.59;5052794;28;12469;-68
2021/10/10 01:25:52;;;;;;;;;22.50;22.25;;;;;11.64;35.04;102521.94;5052123;28;11524;-66
2021/10/10 01:28:48;;;;;;;;;16.75;16.75;;;;;11.68;34.85;102526.59;5052178;28;11617;-67
2021/10/10 01:31:44;;;;;;;;;24.75;19.75;;;;;11.64;34.71;102521.94;5051836;28;11517;-67
2021/10/10 01:34:44;;;;;;;;;20.75;19.75;;;;;11.57;35.00;102527.00;5052094;28;11679;-68
2021/10/10 01:37:40;;;;;;;;;20.00;20.00;;;;;11.65;35.00;102523.56;5051890;28;12405;-68
2021/10/10 01:40:37;;;;;;;;;23.25;21.50;;;;;11.64;35.43;102522.75;5051792;28;11543;-67
2021/10/10 01:43:33;;;;;;;;;25.75;22.50;;;;;11.67;35.51;102535.22;5051648;28;11540;-68
2021/10/10 01:46:28;;;;;;;;;22.00;19.50;;;;;11.60;35.62;102532.78;5052538;28;11601;-68
2021/10/10 01:49:24;;;;;;;;;27.25;27.25;;;;;11.61;35.81;102531.66;5051724;28;11528;-68
2021/10/10 01:52:20;;;;;;;;;22.25;19.75;;;;;11.60;36.03;102537.50;5052568;28;11530;-68
2021/10/10 01:55:16;;;;;;;;;22.25;22.25;;;;;11.59;36.25;102535.84;5051865;28;11623;-68
2021/10/10 01:58:12;;;;;;;;;16.25;16.25;;;;;11.58;36.15;102535.03;5052537;28;11527;-67
2021/10/10 02:01:07;;;;;;;;;20.25;20.25;;;;;11.54;36.07;102545.03;5052079;28;11587;-67
2021/10/10 02:04:03;;;;;;;;;16.00;15.25;;;;;11.51;36.11;102553.94;5051881;28;11635;-68
2021/10/10 02:06:59;;;;;;;;;16.50;16.50;;;;;11.53;36.45;102545.34;5051858;28;11583;-66
2021/10/10 02:09:54;;;;;;;;;14.75;12.50;;;;;11.51;36.22;102545.63;5051601;28;11650;-67
2021/10/10 02:12:50;;;;;;;;;13.00;13.00;;;;;11.56;36.50;102548.34;5051631;28;11492;-67
2021/10/10 02:15:45;;;;;;;;;12.25;12.25;;;;;11.60;36.51;102545.81;5051708;28;11626;-67
2021/10/10 02:18:41;;;;;;;;;11.00;10.25;;;;;11.56;36.17;102548.34;5053945;28;11578;-67
2021/10/10 02:21:36;;;;;;;;;11.50;11.00;;;;;11.55;36.72;102538.38;5041925;28;11578;-67
2021/10/10 02:24:32;;;;;;;;;12.75;12.75;;;;;11.56;36.34;102544.75;5055569;28;11506;-67
2021/10/10 02:27:28;;;;;;;;;10.75;10.75;;;;;11.47;36.76;102544.56;5055541;28;11498;-67
2021/10/10 02:30:23;;;;;;;;;13.75;13.75;;;;;11.52;36.75;102541.75;5055042;28;12259;-67
2021/10/10 02:33:19;;;;;;;;;13.50;13.50;;;;;11.57;37.16;102549.16;5056899;28;11673;-67
2021/10/10 02:36:15;;;;;;;;;9.75;9.75;;;;;11.56;36.71;102550.28;5055224;28;11532;-67
2021/10/10 02:39:11;;;;;;;;;12.25;10.25;;;;;11.65;37.00;102548.53;5055363;28;11505;-67
2021/10/10 02:42:07;;;;;;;;;9.00;9.00;;;;;11.69;37.53;102546.81;5056661;28;11525;-67
2021/10/10 02:45:05;;;;;;;;;7.25;7.25;;;;;11.58;36.83;102540.56;5055156;28;11240;-67
2021/10/10 02:48:00;;;;;;;;;13.25;13.25;;;;;11.63;36.86;102539.69;5056715;28;11492;-68
2021/10/10 02:50:56;;;;;;;;;14.00;14.00;;;;;11.58;36.74;102536.97;5054812;28;11636;-67
2021/10/10 02:53:52;;;;;;;;;15.00;14.50;;;;;11.47;36.59;102543.72;5055010;28;11502;-67
2021/10/10 02:56:47;;;;;;;;;16.00;16.00;;;;;11.47;36.58;102538.19;5041950;28;11531;-69
2021/10/10 02:59:43;;;;;;;;;14.50;14.50;;;;;11.41;36.35;102538.22;5054561;28;11509;-68
2021/10/10 03:02:38;;;;;;;;;15.00;15.00;;;;;11.41;36.58;102537.41;5054847;28;11527;-67
2021/10/10 03:05:34;;;;;;;;;13.75;13.75;;;;;11.43;36.66;102526.06;5055497;28;11610;-67
2021/10/10 03:08:29;;;;;;;;;10.50;10.50;;;;;11.48;36.36;102525.97;5054766;28;11502;-67
2021/10/10 03:11:25;;;;;;;;;14.00;14.00;;;;;11.39;36.65;102523.84;5054557;28;11571;-67
2021/10/10 03:14:20;;;;;;;;;14.50;14.00;;;;;11.50;36.68;102524.59;5055363;28;11485;-67
2021/10/10 03:17:16;;;;;;;;;13.50;10.50;;;;;11.42;36.92;102525.19;5054033;28;11541;-67
2021/10/10 03:20:12;;;;;;;;;10.75;10.75;;;;;11.46;36.68;102519.91;5053902;28;11490;-67
2021/10/10 03:23:07;;;;;;;;;11.50;11.50;;;;;11.38;36.44;102522.19;5053860;28;11455;-66
2021/10/10 03:26:03;;;;;;;;;14.00;14.00;;;;;11.45;36.56;102524.63;5053840;28;11468;-66
2021/10/10 03:28:58;;;;;;;;;15.25;15.25;;;;;11.53;36.44;102512.91;5053406;28;11266;-66
2021/10/10 03:31:54;;;;;;;;;6.50;6.50;;;;;11.49;36.79;102522.91;5054882;28;12403;-67
2021/10/10 03:34:50;;;;;;;;;14.00;14.00;;;;;11.59;37.07;102517.28;5050404;28;11503;-67
2021/10/10 03:37:46;;;;;;;;;18.00;18.00;;;;;11.50;37.30;102519.03;5054472;28;11660;-67
2021/10/10 03:40:41;;;;;;;;;14.50;14.50;;;;;11.50;37.36;102527.38;5053736;28;11556;-67
2021/10/10 03:43:37;;;;;;;;;15.25;15.25;;;;;11.53;36.78;102521.22;5053559;28;11515;-67
2021/10/10 03:46:32;;;;;;;;;22.00;21.50;;;;;11.45;36.80;102529.34;5053615;28;11557;-67
2021/10/10 03:49:28;;;;;;;;;14.50;13.50;;;;;11.54;36.54;102531.19;5053423;28;11568;-67
2021/10/10 03:52:23;;;;;;;;;15.50;14.25;;;;;11.52;36.75;102530.66;5053354;28;11517;-68
2021/10/10 03:55:35;;;;;;;;;15.25;15.25;;;;;11.59;36.77;102530.31;5053094;28;11512;-67
2021/10/10 03:58:31;;;;;;;;;11.50;11.50;;;;;11.55;36.56;102537.56;5051587;28;11510;-67
2021/10/10 04:01:27;;;;;;;;;14.00;14.00;;;;;11.56;36.91;102522.56;5050654;28;11515;-67
2021/10/10 04:04:30;;;;;;;;;11.50;11.50;;;;;11.68;36.76;102523.00;5036830;28;11515;-67
2021/10/10 04:07:25;;;;;;;;;13.50;13.50;;;;;11.67;37.01;102538.81;5050186;28;11505;-67
2021/10/10 04:10:21;;;;;;;;;11.00;11.00;;;;;11.61;36.49;102528.06;5051610;28;11511;-67
2021/10/10 04:13:16;;;;;;;;;14.00;14.00;;;;;11.58;37.05;102531.44;5051529;28;11538;-68
2021/10/10 04:16:12;;;;;;;;;9.75;9.75;;;;;11.50;36.77;102529.28;5050366;28;11607;-67
2021/10/10 04:19:07;;;;;;;;;11.00;10.75;;;;;11.47;36.64;102529.88;5049714;28;11497;-68
2021/10/10 04:22:04;;;;;;;;;16.00;16.00;;;;;11.35;36.40;102531.09;5036676;28;11537;-68
2021/10/10 04:25:00;;;;;;;;;16.00;16.00;;;;;11.52;36.78;102535.38;5051373;28;11592;-67
2021/10/10 04:27:56;;;;;;;;;10.50;10.50;;;;;11.43;37.04;102531.59;5051436;28;11566;-68
2021/10/10 04:30:52;;;;;;;;;14.25;14.25;;;;;11.50;36.68;102538.44;5050062;28;11505;-68
2021/10/10 04:33:47;;;;;;;;;16.25;15.00;;;;;11.45;37.57;102534.88;5049516;28;11544;-68
2021/10/10 04:36:43;;;;;;;;;15.25;14.75;;;;;11.53;37.11;102535.06;5051133;28;11523;-68
2021/10/10 04:39:38;;;;;;;;;15.75;15.75;;;;;11.50;37.18;102537.59;5050508;28;11728;-68
2021/10/10 04:42:35;;;;;;;;;13.25;13.25;;;;;11.57;36.96;102540.84;5050486;28;11512;-68
2021/10/10 04:45:31;;;;;;;;;16.50;16.50;;;;;11.55;36.69;102545.88;5050045;28;11638;-68
2021/10/10 04:48:26;;;;;;;;;21.00;21.00;;;;;11.60;36.49;102541.09;5051124;28;12266;-68
2021/10/10 04:51:22;;;;;;;;;17.25;17.25;;;;;11.41;36.03;102543.75;5051430;28;11515;-68
2021/10/10 04:54:17;;;;;;;;;16.00;15.50;;;;;11.63;35.86;102540.50;5048665;28;11565;-68
2021/10/10 04:57:17;;;;;;;;;18.25;17.75;;;;;11.47;36.43;102550.09;5050968;28;11507;-68
2021/10/10 05:00:13;;;;;;;;;23.00;23.00;;;;;11.61;35.97;102548.28;5047371;28;12295;-68
2021/10/10 05:03:09;;;;;;;;;14.75;12.75;;;;;11.63;35.70;102550.75;5051987;28;11562;-68
2021/10/10 05:06:04;;;;;;;;;12.50;12.50;;;;;11.46;35.46;102555.94;5044866;28;11494;-68
2021/10/10 05:09:00;;;;;;;;;15.00;15.00;;;;;11.46;35.92;102553.97;5051987;28;11523;-68
2021/10/10 05:11:55;;;;;;;;;15.50;14.50;;;;;11.51;35.69;102551.19;5051950;28;11536;-69
2021/10/10 05:14:51;;;;;;;;;17.25;15.75;;;;;11.46;35.66;102558.69;5051711;28;11642;-68
2021/10/10 05:17:46;;;;;;;;;13.00;12.75;;;;;11.48;36.11;102557.28;5038363;28;11530;-66
2021/10/10 05:20:42;;;;;;;;;15.50;13.50;;;;;11.49;35.60;102555.34;5038297;28;11491;-68
2021/10/10 05:23:53;;;;;;;;;15.50;15.50;;;;;11.65;36.13;102548.53;5051675;28;11581;-68
2021/10/10 05:26:48;;;;;;;;;8.75;8.75;;;;;11.64;36.09;102549.66;5051599;28;11549;-68
2021/10/10 05:29:44;;;;;;;;;11.00;11.00;;;;;11.64;35.60;102555.19;5051453;28;11472;-67
2021/10/10 05:32:39;;;;;;;;;13.25;13.25;;;;;11.60;35.49;102551.38;5051820;28;11518;-68
2021/10/10 05:35:36;;;;;;;;;20.00;19.75;;;;;11.59;35.39;102550.53;5051790;28;11561;-67
2021/10/10 05:38:32;;;;;;;;;15.25;14.00;;;;;11.51;35.50;102555.91;5051530;28;12282;-67
2021/10/10 05:41:27;;;;;;;;;14.75;14.75;;;;;11.62;35.58;102552.72;5051817;28;11510;-68
2021/10/10 05:44:23;;;;;;;;;13.25;13.25;;;;;11.54;35.47;102549.75;5051730;28;11501;-68
2021/10/10 05:47:18;;;;;;;;;10.25;10.25;;;;;11.68;35.76;102551.53;5044112;28;11484;-68
2021/10/10 05:50:14;;;;;;;;;9.50;9.50;;;;;11.65;35.79;102554.91;5051246;28;11520;-68
2021/10/10 05:53:09;;;;;;;;;14.00;11.00;;;;;11.73;35.73;102560.91;5050721;28;11502;-69
2021/10/10 05:56:05;;;;;;;;;16.00;14.25;;;;;11.83;35.97;102566.41;5051487;28;11515;-68
2021/10/10 05:59:03;;;;;;;;;11.75;11.75;;;;;11.84;35.49;102568.06;5051053;28;11521;-68
2021/10/10 06:02:00;;;;;;;;;10.25;10.25;;;;;11.84;35.32;102566.09;5050925;28;11458;-68
2021/10/10 06:04:55;;;;;;;;;9.00;9.00;;;;;11.95;35.80;102562.09;5051683;28;11085;-68
2021/10/10 06:07:51;;;;;;;;;13.00;10.75;;;;;11.91;35.63;102561.03;5051339;28;11489;-67
2021/10/10 06:10:47;;;;;;;;;14.75;14.75;;;;;12.10;35.35;102568.56;5050722;28;11622;-69
2021/10/10 06:13:43;;;;;;;;;16.75;15.25;;;;;11.99;35.51;102551.25;5051282;28;11514;-68
2021/10/10 06:16:38;;;;;;;;;22.25;20.25;;;;;12.00;35.54;102563.97;5051064;28;11558;-68
2021/10/10 06:19:37;;;;;;;;;22.00;22.00;;;;;12.02;35.25;102560.91;5051147;28;11531;-68
2021/10/10 06:22:34;;;;;;;;;18.00;18.00;;;;;11.94;35.20;102563.22;5038253;28;11551;-68
2021/10/10 06:25:30;;;;;;;;;21.25;21.25;;;;;12.04;34.96;102561.44;5051417;28;12274;-69
2021/10/10 06:28:25;;;;;;;;;15.25;14.75;;;;;12.22;35.20;102567.03;5051385;28;11570;-68
2021/10/10 06:31:21;;;;;;;;;18.50;18.50;;;;;12.14;35.13;102573.25;5051094;28;11510;-67
2021/10/10 06:34:17;;;;;;;;;22.75;22.00;;;;;12.31;35.02;102581.06;5050610;28;12349;-66
2021/10/10 06:37:12;;;;;;;;;19.50;18.50;;;;;12.23;35.06;102579.78;5050702;28;11221;-67
2021/10/10 06:40:08;;;;;;;;;29.25;28.25;;;;;12.37;35.33;102585.44;5062672;28;11320;-67
2021/10/10 06:43:04;;;;;;;;;28.50;23.50;;;;;12.33;34.92;102566.91;5052250;28;11542;-68
2021/10/10 06:45:59;;;;;;;;;19.00;19.00;;;;;12.55;35.38;102580.22;5050999;28;11557;-68
2021/10/10 06:48:55;;;;;;;;;18.25;17.50;;;;;12.48;34.52;102578.63;5048814;28;11551;-67
2021/10/10 06:51:50;;;;;;;;;23.00;23.00;;;;;12.55;35.30;102580.22;5051038;28;12080;-67
2021/10/10 06:54:46;;;;;;;;;20.75;20.75;;;;;12.46;34.87;102583.66;5050862;28;11398;-68
2021/10/10 06:57:42;;;;;;;;;17.25;17.00;;;;;12.72;34.65;102578.56;5051024;28;11527;-69
2021/10/10 07:00:38;;;;;;;;;9.00;8.25;;;;;12.75;34.31;102579.94;5038554;28;11069;-68
2021/10/10 07:03:34;;;;;;;;;12.00;11.00;;;;;12.78;34.26;102588.47;5033062;28;11754;-68
2021/10/10 07:06:29;;;;;;;;;17.00;17.00;;;;;12.85;34.93;102578.97;5052520;28;10900;-68
2021/10/10 07:09:25;;;;;;;;;9.75;8.50;;;;;13.14;33.85;102576.84;5055182;28;11025;-68
2021/10/10 07:12:21;;;;;;;;;20.00;20.00;;;;;13.27;34.37;102578.06;5053909;28;10970;-68
2021/10/10 07:15:16;;;;;;;;;23.25;20.50;;;;;13.22;33.83;102576.19;5054539;28;11064;-68
2021/10/10 07:18:13;;;;;;;;;19.25;19.25;;;;;13.33;33.93;102574.84;5054530;28;10957;-67
2021/10/10 07:27:44;;;;;;;;;19.75;19.75;;;;;13.59;33.97;102571.66;5051300;28;10965;-67
2021/10/10 07:30:39;;;;;;;;;22.50;21.50;;;;;13.79;34.41;102568.47;5062031;28;10970;-67
2021/10/10 07:33:35;;;;;;;;;17.50;17.25;;;;;13.88;33.63;102575.00;5053800;28;10692;-68
2021/10/10 07:36:31;;;;;;;;;22.00;22.00;;;;;13.99;33.59;102570.03;5053869;28;10825;-69
2021/10/10 07:39:26;;;;;;;;;26.50;25.75;;;;;14.03;33.09;102561.91;5053779;28;11466;-68
2021/10/10 07:42:22;;;;;;;;;24.00;22.00;;;;;14.30;33.33;102559.09;5045908;28;10919;-69
2021/10/10 07:45:21;;;;;;;;;20.75;20.75;;;;;14.58;33.05;102557.16;5040216;28;11133;-69
2021/10/10 07:48:16;;;;;;;;;22.00;22.00;;;;;14.64;31.80;102555.88;5054224;28;10572;-69
2021/10/10 07:51:12;;;;;;;;;18.00;18.00;;;;;14.73;29.50;102547.63;5052991;28;10658;-67
2021/10/10 07:54:08;;;;;;;;;13.00;13.00;;;;;14.99;28.04;102550.59;5050317;28;10280;-70
2021/10/10 07:57:04;;;;;;;;;15.00;14.50;;;;;15.17;27.63;102551.56;5053352;28;10326;-71
2021/10/10 08:00:00;;;;;;;;;17.25;15.25;;;;;15.43;26.81;102546.16;5034430;28;10177;-73
2021/10/10 08:02:58;;;;;;;;;15.00;14.00;;;;;15.70;26.76;102548.78;5045326;28;10161;-72
2021/10/10 08:05:54;;;;;;;;;11.75;11.75;;;;;15.51;26.20;102550.97;5035190;28;9858;-72
2021/10/10 08:08:49;;;;;;;;;11.00;11.00;;;;;15.57;26.57;102542.16;5033551;28;9709;-73
2021/10/10 08:11:45;;;;;;;;;18.50;14.00;;;;;15.66;26.51;102550.59;5033711;28;9892;-73
2021/10/10 08:14:41;;;;;;;;;16.75;16.75;;;;;15.74;26.42;102547.00;5034946;28;10048;-73
2021/10/10 08:17:37;;;;;;;;;16.25;16.25;;;;;15.70;26.31;102539.59;5035014;28;9948;-72
2021/10/10 08:20:33;;;;;;;;;12.00;11.50;;;;;15.94;26.08;102542.00;5033680;28;10077;-73
2021/10/10 08:23:29;;;;;;;;;16.25;16.25;;;;;15.68;26.28;102553.06;5033515;28;9952;-72
2021/10/10 08:26:24;;;;;;;;;12.25;12.25;;;;;15.61;26.41;102542.34;5045104;28;9803;-71
2021/10/10 08:29:20;;;;;;;;;13.25;13.25;;;;;15.76;27.13;102541.09;5034026;28;10053;-71
2021/10/10 08:32:15;;;;;;;;;14.25;14.25;;;;;15.94;27.42;102542.81;5044859;28;9906;-71
2021/10/10 08:35:12;;;;;;;;;17.75;17.75;;;;;15.95;27.63;102535.25;5034932;28;9714;-72
2021/10/10 08:38:08;;;;;;;;;34.50;32.50;;;;;15.82;27.38;102531.47;5034396;28;10030;-72
2021/10/10 08:41:05;;;;;;;;;25.75;25.75;;;;;15.94;27.65;102523.28;5033641;28;10534;-72
2021/10/10 08:44:04;;;;;;;;;28.00;27.25;;;;;16.10;27.32;102524.50;5032161;28;10451;-72
2021/10/10 08:47:06;;;;;;;;;16.25;16.25;;;;;16.08;26.66;102540.72;5031114;28;10129;-72
2021/10/10 08:50:02;;;;;;;;;15.00;13.50;;;;;16.02;26.44;102521.66;5044381;28;10120;-72
2021/10/10 08:53:00;;;;;;;;;16.00;16.00;;;;;16.18;25.52;102528.47;5031475;28;9878;-72
2021/10/10 08:55:56;;;;;;;;;15.75;15.75;;;;;16.19;25.91;102535.69;5032091;28;9957;-72
2021/10/10 08:58:52;;;;;;;;;20.50;17.00;;;;;16.47;25.67;102533.44;5032720;28;9933;-72
2021/10/10 09:01:48;;;;;;;;;22.25;21.50;;;;;16.48;25.99;102540.66;5044312;28;9874;-72
2021/10/10 09:04:44;;;;;;;;;30.25;28.00;;;;;16.47;25.69;102529.81;5033491;28;9912;-73
2021/10/10 09:07:40;;;;;;;;;26.50;25.75;;;;;16.58;26.35;102526.38;5034282;28;10220;-72
2021/10/10 09:10:37;;;;;;;;;36.75;34.00;;;;;16.63;25.98;102525.38;5032455;28;10018;-71
2021/10/10 09:13:41;;;;;;;;;40.75;35.25;;;;;16.70;25.64;102542.53;5034012;28;10211;-72
2021/10/10 09:16:38;;;;;;;;;23.50;22.00;;;;;16.71;25.11;102530.19;5031739;28;10373;-73
2021/10/10 09:19:33;;;;;;;;;17.25;17.25;;;;;16.83;25.58;102527.56;5031584;28;10760;-77
2021/10/10 09:22:29;;;;;;;;;34.50;25.50;;;;;16.52;25.29;102522.09;5032305;28;9636;-71
2021/10/10 09:25:25;;;;;;;;;29.50;29.00;;;;;16.63;25.58;102525.38;5033701;28;9865;-72
2021/10/10 09:28:23;;;;;;;;;44.50;36.75;;;;;16.73;26.86;102521.50;5032979;28;9944;-72
2021/10/10 09:31:18;;;;;;;;;35.00;31.50;;;;;17.06;26.75;102527.41;5043785;28;11231;-72
2021/10/10 09:34:22;;;;;;;;;28.25;23.75;;;;;16.96;26.04;102522.97;5032232;28;10236;-73
2021/10/10 09:37:43;;;;;;;;;24.50;23.75;;;;;16.81;25.80;102529.88;5033023;28;9723;-72
2021/10/10 09:41:00;;;;;;;;;27.75;23.00;;;;;16.90;25.40;102524.28;5032685;28;9802;-73
2021/10/10 09:44:04;;;;;;;;;25.75;25.75;;;;;16.84;25.06;102528.38;5032011;28;10491;-73
2021/10/10 09:47:01;;;;;;;;;19.75;19.50;;;;;16.85;24.58;102522.47;5018884;28;10621;-72
2021/10/10 09:50:08;;;;;;;;;27.75;27.25;;;;;17.04;24.85;102527.72;5031786;28;9866;-73
2021/10/10 09:53:03;;;;;;;;;21.25;20.75;;;;;17.23;24.22;102522.59;5031901;28;9608;-74
2021/10/10 09:56:17;;;;;;;;;26.33;24.67;;;;;17.04;23.82;102527.72;5020403;28;9759;-72
2021/10/10 09:59:28;;;;;;;;;27.25;26.50;;;;;17.03;24.31;102525.28;5030768;28;9407;-72
2021/10/10 10:02:38;;;;;;;;;23.25;23.25;;;;;16.95;24.10;102529.72;5032234;28;10520;-73
2021/10/10 10:05:34;;;;;;;;;21.75;21.75;;;;;16.97;24.28;102521.00;5031255;28;9839;-73
2021/10/10 10:08:29;;;;;;;;;24.75;20.75;;;;;17.04;24.46;102521.31;5032701;28;9798;-73
2021/10/10 10:11:25;;;;;;;;;33.50;32.25;;;;;17.07;24.55;102518.66;5032022;28;9862;-73
2021/10/10 10:14:22;;;;;;;;;33.25;32.00;;;;;17.15;24.40;102514.22;5031851;28;10128;-73
2021/10/10 10:17:19;;;;;;;;;18.25;18.25;;;;;17.30;24.49;102512.88;5033306;28;10053;-73
2021/10/10 10:20:15;;;;;;;;;29.00;27.75;;;;;17.43;24.37;102520.25;5018581;28;9718;-72
2021/10/10 10:23:11;;;;;;;;;36.25;34.50;;;;;17.66;24.37;102504.88;5031663;28;9919;-72
2021/10/10 10:26:07;;;;;;;;;36.00;33.00;;;;;17.89;23.88;102505.44;5030762;28;11027;-73
2021/10/10 10:29:15;;;;;;;;;33.25;30.75;;;;;18.06;24.77;102502.56;5031648;28;9809;-73
2021/10/10 10:32:13;;;;;;;;;29.33;29.33;;;;;17.98;24.39;102500.63;5031580;28;9635;-73
2021/10/10 10:35:13;;;;;;;;;21.33;21.33;;;;;18.31;24.57;102511.13;5033277;28;9490;-73
2021/10/10 10:38:09;;;;;;;;;18.67;18.67;;;;;17.99;23.92;102493.03;5033099;28;10187;-73
2021/10/10 10:41:04;;;;;;;;;24.67;23.67;;;;;18.17;24.10;102485.34;5037074;28;9496;-73
2021/10/10 10:44:00;;;;;;;;;20.25;20.25;;;;;18.12;23.83;102499.56;5035318;28;9600;-73
2021/10/10 10:47:15;;;;;;;;;27.67;27.67;;;;;18.26;23.22;102500.97;5022222;28;9551;-73
2021/10/10 10:50:15;;;;;;;;;17.33;17.33;;;;;18.37;23.43;102497.75;5036743;28;9325;-73
2021/10/10 10:53:19;;;;;;;;;19.00;19.00;;;;;18.30;22.82;102501.91;5035213;28;9206;-72
2021/10/10 10:56:26;;;;;;;;;24.67;24.00;;;;;18.40;23.53;102497.06;5035101;28;9255;-73
2021/10/10 11:00:01;;;;;;;;;24.00;24.00;;;;;18.69;22.66;102496.19;5037980;28;9414;-70
2021/10/10 11:03:06;;;;;;;;;27.75;27.25;;;;;18.67;23.29;102492.94;5051720;28;9471;-70
2021/10/10 11:06:04;;;;;;;;;18.33;18.33;;;;;18.96;22.40;102498.44;5053826;28;9470;-70
2021/10/10 11:09:06;;;;;;;;;16.00;14.75;;;;;19.15;22.61;102498.72;5047014;28;9077;-70
2021/10/10 11:12:02;;;;;;;;;18.00;18.00;;;;;18.89;22.57;102495.38;5054423;28;8835;-69
2021/10/10 11:15:10;;;;;;;;;16.25;16.25;;;;;18.70;23.15;102498.66;5053744;28;8955;-69
2021/10/10 11:18:05;;;;;;;;;19.33;19.33;;;;;18.64;22.73;102490.78;5046119;28;8877;-69
2021/10/10 11:21:06;;;;;;;;;12.25;12.25;;;;;18.59;22.43;102495.44;5041294;28;9810;-69
2021/10/10 11:24:06;;;;;;;;;17.25;16.75;;;;;18.73;23.12;102494.38;5060837;28;8849;-69
2021/10/10 11:27:10;;;;;;;;;14.00;12.50;;;;;18.78;22.55;102496.94;5055961;28;8836;-69
2021/10/10 11:30:07;;;;;;;;;13.33;13.33;;;;;18.55;22.39;102497.25;5054340;28;9729;-69
2021/10/10 11:33:02;;;;;;;;;9.00;9.00;;;;;18.38;22.44;102493.78;5054410;28;9011;-69
2021/10/10 11:35:58;;;;;;;;;13.00;13.00;;;;;18.27;22.73;102484.97;5057239;28;8823;-69
2021/10/10 11:38:25;;;;;;;;;14.33;14.33;;;;;18.30;22.81;102487.06;5034710;28;9039;-69
2021/10/10 11:40:59;;;;;;;;;13.33;13.33;;;;;18.32;22.84;102487.53;5059223;28;8968;-69
2021/10/10 11:44:04;;;;;;;;;19.00;19.00;;;;;18.47;22.53;102491.72;5060482;28;8899;-70
2021/10/10 11:46:40;;;;;;;;;21.67;21.33;;;;;18.40;22.58;102486.66;5054800;28;9173;-70
2021/10/10 11:52:32;;;;;;;;;21.67;21.67;;;;;17.95;22.71;102483.69;5054336;28;9494;-69
2021/10/10 11:55:11;;;;;;;;;16.33;16.33;;;;;18.16;23.11;102483.72;5055106;28;9171;-69
2021/10/10 11:57:39;;;;;;;;;23.67;21.67;;;;;18.28;23.84;102481.00;5054890;28;9940;-69
2021/10/10 12:00:29;;;;;;;;;22.33;20.33;;;;;18.28;22.72;102478.19;5054387;28;9221;-69
2021/10/10 12:03:15;;;;;;;;;20.67;19.00;;;;;18.04;22.64;102482.47;5050694;28;9086;-69
2021/10/10 12:06:16;;;;;;;;;25.00;25.00;;;;;17.83;23.04;102473.19;5049673;28;9322;-70
2021/10/10 12:09:12;;;;;;;;;25.25;24.25;;;;;17.86;23.67;102478.13;5037976;28;9546;-70
2021/10/10 12:12:14;;;;;;;;;30.75;30.25;;;;;17.94;23.70;102484.81;5052986;28;9658;-68
2021/10/10 12:15:09;;;;;;;;;22.25;20.75;;;;;17.63;23.58;102471.13;5052105;28;9639;-69
2021/10/10 12:18:15;;;;;;;;;28.50;27.50;;;;;17.62;23.82;102469.47;5051795;28;9467;-69
2021/10/10 12:21:28;;;;;;;;;32.75;32.00;;;;;17.76;24.25;102464.50;5041440;28;9944;-69
2021/10/10 12:24:25;;;;;;;;;35.00;33.50;;;;;17.68;24.23;102468.16;5055770;28;9954;-68
2021/10/10 12:27:29;;;;;;;;;24.67;23.33;;;;;17.52;23.80;102456.69;5064898;28;9895;-69
2021/10/10 12:30:29;;;;;;;;;25.75;22.50;;;;;17.77;23.96;102466.16;5052342;28;9334;-69
2021/10/10 12:33:26;;;;;;;;;24.50;24.50;;;;;17.61;23.90;102463.06;5058654;28;9744;-70
2021/10/10 12:36:22;;;;;;;;;33.75;32.00;;;;;17.55;23.76;102460.78;5064677;28;9624;-70
2021/10/10 12:38:51;;;;;;;;;39.75;36.00;;;;;17.67;24.46;102469.31;5066040;28;9808;-69
2021/10/10 12:41:20;;;;;;;;;44.00;37.00;;;;;17.49;23.94;102466.59;5037450;28;10227;-71
2021/10/10 12:44:16;;;;;;;;;36.25;31.50;;;;;17.54;23.92;102459.16;5050826;28;10044;-70
2021/10/10 12:47:11;;;;;;;;;26.00;26.00;;;;;17.46;24.08;102460.84;5052975;28;9717;-70
2021/10/10 12:50:09;;;;;;;;;20.33;20.33;;;;;17.42;24.35;102459.88;5051722;28;9612;-69
2021/10/10 12:53:05;;;;;;;;;12.00;10.00;;;;;17.47;25.04;102454.91;5050570;28;9382;-69
2021/10/10 12:56:18;;;;;;;;;18.67;18.67;;;;;17.52;24.70;102459.50;5047067;28;9671;-69
2021/10/10 12:58:55;;;;;;;;;22.00;21.33;;;;;17.49;25.20;102454.59;5051720;28;9349;-69
2021/10/10 13:01:51;;;;;;;;;10.33;10.33;;;;;17.42;24.86;102455.09;5051543;28;9325;-70
2021/10/10 13:04:47;;;;;;;;;19.33;18.33;;;;;17.45;24.95;102460.00;5051750;28;9066;-71
2021/10/10 13:07:42;;;;;;;;;18.33;18.33;;;;;17.66;25.23;102460.09;5045472;28;9404;-71
2021/10/10 13:10:38;;;;;;;;;18.00;18.00;;;;;17.76;25.01;102458.91;5053841;28;9582;-70
2021/10/10 13:13:11;;;;;;;;;16.33;16.33;;;;;17.56;24.87;102454.88;5053575;28;9244;-71
2021/10/10 13:16:07;;;;;;;;;21.50;21.50;;;;;17.54;25.48;102465.56;5052621;28;9559;-70
2021/10/10 13:19:03;;;;;;;;;17.00;17.00;;;;;17.47;25.26;102454.91;5052315;28;9629;-71
2021/10/10 13:21:59;;;;;;;;;18.33;18.00;;;;;17.32;25.21;102451.84;5070229;28;9325;-71
2021/10/10 13:24:55;;;;;;;;;14.00;14.00;;;;;17.40;25.39;102453.78;5032541;28;9578;-70
2021/10/10 13:27:50;;;;;;;;;20.67;19.67;;;;;17.40;25.62;102451.78;5033846;28;9261;-70
2021/10/10 13:30:46;;;;;;;;;18.67;18.67;;;;;17.41;25.83;102447.88;5031984;28;9420;-70
2021/10/10 13:33:36;;;;;;;;;20.00;19.00;;;;;17.34;26.04;102446.75;5033133;28;9311;-70